sensor_id;sensor_type;location;lat;lon;timestamp;P1;durP1;ratioP1;P2;durP2;ratioP2
583;SDS011;27024;54.068;12.116;2022-10-14T00:00:06;17.00;;;9.95;;
583;SDS011;27024;54.068;12.116;2022-10-14T00:02:33;16.75;;;9.63;;
583;SDS011;27024;54.068;12.116;2022-10-14T00:05:00;16.52;;;9.88;;
583;SDS011;27024;54.068;12.116;2022-10-14T00:07:27;19.20;;;10.98;;
583;SDS011;27024;54.068;12.116;2022-10-14T00:09:54;17.90;;;9.27;;
583;SDS011;27024;54.068;12.116;2022-10-14T00:12:21;18.15;;;9.13;;
583;SDS011;27024;54.068;12.116;2022-10-14T00:14:47;16.50;;;9.07;;
583;SDS011;27024;54.068;12.116;2022-10-14T00:17:14;18.30;;;9.57;;
583;SDS011;27024;54.068;12.116;2022-10-14T00:19:41;15.15;;;8.88;;
583;SDS011;27024;54.068;12.116;2022-10-14T00:22:08;15.80;;;9.13;;
583;SDS011;27024;54.068;12.116;2022-10-14T00:24:35;17.00;;;8.93;;
583;SDS011;27024;54.068;12.116;2022-10-14T00:27:02;19.65;;;9.25;;
583;SDS011;27024;54.068;12.116;2022-10-14T00:29:29;17.65;;;10.18;;
583;SDS011;27024;54.068;12.116;2022-10-14T00:31:56;19.58;;;10.00;;
583;SDS011;27024;54.068;12.116;2022-10-14T00:34:22;17.30;;;9.18;;
583;SDS011;27024;54.068;12.116;2022-10-14T00:36:49;21.70;;;10.05;;
583;SDS011;27024;54.068;12.116;2022-10-14T00:39:16;22.55;;;9.73;;
583;SDS011;27024;54.068;12.116;2022-10-14T00:41:43;20.63;;;10.32;;
583;SDS011;27024;54.068;12.116;2022-10-14T00:46:42;21.67;;;10.93;;
583;SDS011;27024;54.068;12.116;2022-10-14T00:49:16;20.90;;;11.02;;
583;SDS011;27024;54.068;12.116;2022-10-14T00:51:47;22.73;;;11.35;;
583;SDS011;27024;54.068;12.116;2022-10-14T00:54:19;22.80;;;10.90;;
583;SDS011;27024;54.068;12.116;2022-10-14T00:56:50;19.85;;;11.13;;
583;SDS011;27024;54.068;12.116;2022-10-14T00:59:19;21.55;;;10.20;;
583;SDS011;27024;54.068;12.116;2022-10-14T01:01:46;23.67;;;11.10;;
583;SDS011;27024;54.068;12.116;2022-10-14T01:04:13;19.52;;;10.45;;
583;SDS011;27024;54.068;12.116;2022-10-14T01:09:42;17.17;;;9.90;;
583;SDS011;27024;54.068;12.116;2022-10-14T01:12:27;20.42;;;10.10;;
583;SDS011;27024;54.068;12.116;2022-10-14T01:26:19;17.75;;;9.98;;
583;SDS011;27024;54.068;12.116;2022-10-14T01:31:25;20.38;;;10.07;;
583;SDS011;27024;54.068;12.116;2022-10-14T01:33:56;20.38;;;10.57;;
583;SDS011;27024;54.068;12.116;2022-10-14T01:39:08;17.67;;;9.60;;
583;SDS011;27024;54.068;12.116;2022-10-14T01:41:39;17.08;;;10.02;;
583;SDS011;27024;54.068;12.116;2022-10-14T01:44:10;18.67;;;9.55;;
583;SDS011;27024;54.068;12.116;2022-10-14T01:46:39;17.17;;;9.35;;
583;SDS011;27024;54.068;12.116;2022-10-14T01:49:12;17.73;;;9.23;;
583;SDS011;27024;54.068;12.116;2022-10-14T01:51:46;15.13;;;9.18;;
583;SDS011;27024;54.068;12.116;2022-10-14T01:54:19;19.05;;;10.25;;
583;SDS011;27024;54.068;12.116;2022-10-14T01:56:49;16.17;;;9.10;;
583;SDS011;27024;54.068;12.116;2022-10-14T01:59:19;19.58;;;10.43;;
583;SDS011;27024;54.068;12.116;2022-10-14T02:01:48;16.08;;;9.10;;
583;SDS011;27024;54.068;12.116;2022-10-14T02:04:16;21.15;;;10.02;;
583;SDS011;27024;54.068;12.116;2022-10-14T02:06:51;18.90;;;9.80;;
583;SDS011;27024;54.068;12.116;2022-10-14T02:09:47;21.23;;;9.43;;
583;SDS011;27024;54.068;12.116;2022-10-14T02:18:21;18.58;;;9.73;;
583;SDS011;27024;54.068;12.116;2022-10-14T02:21:00;22.45;;;9.73;;
583;SDS011;27024;54.068;12.116;2022-10-14T02:23:36;21.00;;;9.82;;
583;SDS011;27024;54.068;12.116;2022-10-14T02:26:10;15.93;;;9.27;;
583;SDS011;27024;54.068;12.116;2022-10-14T02:28:37;20.00;;;10.00;;
583;SDS011;27024;54.068;12.116;2022-10-14T02:31:07;17.25;;;9.05;;
583;SDS011;27024;54.068;12.116;2022-10-14T02:33:39;19.77;;;9.80;;
583;SDS011;27024;54.068;12.116;2022-10-14T02:36:08;17.17;;;10.52;;
583;SDS011;27024;54.068;12.116;2022-10-14T02:38:40;19.05;;;9.30;;
583;SDS011;27024;54.068;12.116;2022-10-14T02:41:10;15.85;;;9.13;;
583;SDS011;27024;54.068;12.116;2022-10-14T02:43:39;18.83;;;9.88;;
583;SDS011;27024;54.068;12.116;2022-10-14T02:46:08;19.15;;;10.68;;
583;SDS011;27024;54.068;12.116;2022-10-14T02:48:35;22.95;;;10.15;;
583;SDS011;27024;54.068;12.116;2022-10-14T02:51:02;16.55;;;10.02;;
583;SDS011;27024;54.068;12.116;2022-10-14T02:53:31;17.80;;;10.25;;
583;SDS011;27024;54.068;12.116;2022-10-14T02:55:58;19.30;;;10.70;;
583;SDS011;27024;54.068;12.116;2022-10-14T02:58:25;21.65;;;11.02;;
583;SDS011;27024;54.068;12.116;2022-10-14T03:00:51;19.17;;;11.02;;
583;SDS011;27024;54.068;12.116;2022-10-14T03:03:18;23.83;;;11.15;;
583;SDS011;27024;54.068;12.116;2022-10-14T03:05:45;20.27;;;11.05;;
583;SDS011;27024;54.068;12.116;2022-10-14T03:08:12;22.75;;;11.27;;
583;SDS011;27024;54.068;12.116;2022-10-14T03:10:44;22.50;;;12.23;;
583;SDS011;27024;54.068;12.116;2022-10-14T03:13:11;20.70;;;11.15;;
583;SDS011;27024;54.068;12.116;2022-10-14T03:15:39;27.35;;;11.85;;
583;SDS011;27024;54.068;12.116;2022-10-14T03:18:06;22.08;;;11.77;;
583;SDS011;27024;54.068;12.116;2022-10-14T03:20:33;24.95;;;12.70;;
583;SDS011;27024;54.068;12.116;2022-10-14T03:23:00;28.30;;;12.88;;
583;SDS011;27024;54.068;12.116;2022-10-14T03:25:26;24.70;;;12.90;;
583;SDS011;27024;54.068;12.116;2022-10-14T03:27:54;27.15;;;12.50;;
583;SDS011;27024;54.068;12.116;2022-10-14T03:30:20;26.40;;;13.10;;
583;SDS011;27024;54.068;12.116;2022-10-14T03:32:47;25.83;;;12.35;;
583;SDS011;27024;54.068;12.116;2022-10-14T03:35:14;26.50;;;12.25;;
583;SDS011;27024;54.068;12.116;2022-10-14T03:37:41;22.10;;;12.23;;
583;SDS011;27024;54.068;12.116;2022-10-14T03:40:07;24.23;;;12.43;;
583;SDS011;27024;54.068;12.116;2022-10-14T03:42:35;27.50;;;13.18;;
583;SDS011;27024;54.068;12.116;2022-10-14T03:45:02;25.55;;;13.93;;
583;SDS011;27024;54.068;12.116;2022-10-14T03:47:29;23.98;;;13.35;;
583;SDS011;27024;54.068;12.116;2022-10-14T03:49:56;25.02;;;13.18;;
583;SDS011;27024;54.068;12.116;2022-10-14T03:52:22;24.98;;;12.85;;
583;SDS011;27024;54.068;12.116;2022-10-14T03:54:49;23.83;;;12.93;;
583;SDS011;27024;54.068;12.116;2022-10-14T03:57:16;29.02;;;13.75;;
583;SDS011;27024;54.068;12.116;2022-10-14T03:59:43;22.33;;;13.10;;
583;SDS011;27024;54.068;12.116;2022-10-14T04:02:10;26.77;;;13.95;;
583;SDS011;27024;54.068;12.116;2022-10-14T04:04:36;26.55;;;13.05;;
583;SDS011;27024;54.068;12.116;2022-10-14T04:07:03;27.52;;;14.32;;
583;SDS011;27024;54.068;12.116;2022-10-14T04:09:30;28.88;;;13.50;;
583;SDS011;27024;54.068;12.116;2022-10-14T04:11:56;26.58;;;13.77;;
583;SDS011;27024;54.068;12.116;2022-10-14T04:14:24;30.55;;;13.40;;
583;SDS011;27024;54.068;12.116;2022-10-14T04:16:52;28.73;;;14.25;;
583;SDS011;27024;54.068;12.116;2022-10-14T04:19:18;24.20;;;12.90;;
583;SDS011;27024;54.068;12.116;2022-10-14T04:21:45;27.92;;;13.18;;
583;SDS011;27024;54.068;12.116;2022-10-14T04:24:12;27.17;;;13.07;;
583;SDS011;27024;54.068;12.116;2022-10-14T04:26:38;26.58;;;13.57;;
583;SDS011;27024;54.068;12.116;2022-10-14T04:29:05;30.70;;;14.85;;
583;SDS011;27024;54.068;12.116;2022-10-14T04:31:32;26.15;;;13.38;;
583;SDS011;27024;54.068;12.116;2022-10-14T04:33:59;28.50;;;14.30;;
583;SDS011;27024;54.068;12.116;2022-10-14T04:36:25;24.17;;;13.60;;
583;SDS011;27024;54.068;12.116;2022-10-14T04:38:52;26.27;;;14.13;;
583;SDS011;27024;54.068;12.116;2022-10-14T04:41:19;28.50;;;14.70;;
583;SDS011;27024;54.068;12.116;2022-10-14T04:43:45;31.05;;;13.73;;
583;SDS011;27024;54.068;12.116;2022-10-14T04:46:12;28.20;;;13.43;;
583;SDS011;27024;54.068;12.116;2022-10-14T04:48:39;26.52;;;13.50;;
583;SDS011;27024;54.068;12.116;2022-10-14T04:51:06;30.67;;;14.23;;
583;SDS011;27024;54.068;12.116;2022-10-14T04:53:32;25.77;;;13.10;;
583;SDS011;27024;54.068;12.116;2022-10-14T04:55:59;27.50;;;13.80;;
583;SDS011;27024;54.068;12.116;2022-10-14T04:58:29;26.20;;;13.07;;
583;SDS011;27024;54.068;12.116;2022-10-14T05:00:55;24.80;;;13.70;;
583;SDS011;27024;54.068;12.116;2022-10-14T05:03:22;28.92;;;13.68;;
583;SDS011;27024;54.068;12.116;2022-10-14T05:05:49;28.48;;;13.57;;
583;SDS011;27024;54.068;12.116;2022-10-14T05:08:17;26.65;;;13.57;;
583;SDS011;27024;54.068;12.116;2022-10-14T05:10:47;24.98;;;13.93;;
583;SDS011;27024;54.068;12.116;2022-10-14T05:13:14;29.73;;;13.90;;
583;SDS011;27024;54.068;12.116;2022-10-14T05:15:41;28.35;;;14.82;;
583;SDS011;27024;54.068;12.116;2022-10-14T05:18:11;31.50;;;14.95;;
583;SDS011;27024;54.068;12.116;2022-10-14T05:20:38;27.63;;;13.95;;
583;SDS011;27024;54.068;12.116;2022-10-14T05:23:06;30.52;;;14.30;;
583;SDS011;27024;54.068;12.116;2022-10-14T05:25:33;31.77;;;14.25;;
583;SDS011;27024;54.068;12.116;2022-10-14T05:27:59;24.85;;;14.20;;
583;SDS011;27024;54.068;12.116;2022-10-14T05:30:26;30.90;;;14.15;;
583;SDS011;27024;54.068;12.116;2022-10-14T05:32:59;29.58;;;14.15;;
583;SDS011;27024;54.068;12.116;2022-10-14T05:35:27;29.45;;;14.40;;
583;SDS011;27024;54.068;12.116;2022-10-14T05:38:14;30.25;;;14.07;;
583;SDS011;27024;54.068;12.116;2022-10-14T05:40:41;30.10;;;15.02;;
583;SDS011;27024;54.068;12.116;2022-10-14T05:43:08;32.38;;;14.57;;
583;SDS011;27024;54.068;12.116;2022-10-14T05:45:35;33.40;;;16.75;;
583;SDS011;27024;54.068;12.116;2022-10-14T05:48:02;32.00;;;14.00;;
583;SDS011;27024;54.068;12.116;2022-10-14T05:50:29;33.30;;;15.20;;
583;SDS011;27024;54.068;12.116;2022-10-14T05:52:55;34.42;;;15.13;;
583;SDS011;27024;54.068;12.116;2022-10-14T05:55:22;38.45;;;14.77;;
583;SDS011;27024;54.068;12.116;2022-10-14T05:57:49;32.55;;;14.88;;
583;SDS011;27024;54.068;12.116;2022-10-14T06:00:20;39.97;;;16.15;;
583;SDS011;27024;54.068;12.116;2022-10-14T06:02:51;33.35;;;15.05;;
583;SDS011;27024;54.068;12.116;2022-10-14T06:05:18;33.13;;;15.23;;
583;SDS011;27024;54.068;12.116;2022-10-14T06:07:45;31.55;;;15.35;;
583;SDS011;27024;54.068;12.116;2022-10-14T06:10:11;34.85;;;16.02;;
583;SDS011;27024;54.068;12.116;2022-10-14T06:12:38;35.00;;;14.82;;
583;SDS011;27024;54.068;12.116;2022-10-14T06:15:05;31.55;;;14.60;;
583;SDS011;27024;54.068;12.116;2022-10-14T06:17:32;31.83;;;15.18;;
583;SDS011;27024;54.068;12.116;2022-10-14T06:19:59;34.45;;;15.30;;
583;SDS011;27024;54.068;12.116;2022-10-14T06:22:26;34.92;;;14.40;;
583;SDS011;27024;54.068;12.116;2022-10-14T06:24:53;39.35;;;15.05;;
583;SDS011;27024;54.068;12.116;2022-10-14T06:27:20;33.95;;;14.45;;
583;SDS011;27024;54.068;12.116;2022-10-14T06:29:46;36.40;;;15.32;;
583;SDS011;27024;54.068;12.116;2022-10-14T06:32:13;33.30;;;15.50;;
583;SDS011;27024;54.068;12.116;2022-10-14T06:34:40;33.05;;;14.57;;
583;SDS011;27024;54.068;12.116;2022-10-14T06:37:06;34.30;;;14.45;;
583;SDS011;27024;54.068;12.116;2022-10-14T06:39:33;39.67;;;15.93;;
583;SDS011;27024;54.068;12.116;2022-10-14T06:42:01;39.50;;;15.15;;
583;SDS011;27024;54.068;12.116;2022-10-14T06:44:28;41.35;;;15.25;;
583;SDS011;27024;54.068;12.116;2022-10-14T06:46:55;37.03;;;15.45;;
583;SDS011;27024;54.068;12.116;2022-10-14T06:49:22;38.42;;;15.35;;
583;SDS011;27024;54.068;12.116;2022-10-14T06:51:48;42.83;;;15.82;;
583;SDS011;27024;54.068;12.116;2022-10-14T06:54:15;40.20;;;15.60;;
583;SDS011;27024;54.068;12.116;2022-10-14T06:56:42;40.42;;;15.88;;
583;SDS011;27024;54.068;12.116;2022-10-14T06:59:09;38.80;;;16.52;;
583;SDS011;27024;54.068;12.116;2022-10-14T07:01:35;42.30;;;17.05;;
583;SDS011;27024;54.068;12.116;2022-10-14T07:04:02;39.55;;;16.10;;
583;SDS011;27024;54.068;12.116;2022-10-14T07:06:29;44.95;;;16.88;;
583;SDS011;27024;54.068;12.116;2022-10-14T07:08:56;42.80;;;16.75;;
583;SDS011;27024;54.068;12.116;2022-10-14T07:11:23;39.20;;;16.70;;
583;SDS011;27024;54.068;12.116;2022-10-14T07:13:50;45.70;;;17.55;;
583;SDS011;27024;54.068;12.116;2022-10-14T07:16:17;39.63;;;16.23;;
583;SDS011;27024;54.068;12.116;2022-10-14T07:18:43;41.67;;;16.85;;
583;SDS011;27024;54.068;12.116;2022-10-14T07:21:10;41.50;;;16.02;;
583;SDS011;27024;54.068;12.116;2022-10-14T07:23:37;38.55;;;16.05;;
583;SDS011;27024;54.068;12.116;2022-10-14T07:26:03;41.15;;;17.55;;
583;SDS011;27024;54.068;12.116;2022-10-14T07:28:30;39.40;;;15.88;;
583;SDS011;27024;54.068;12.116;2022-10-14T07:31:00;40.95;;;16.20;;
583;SDS011;27024;54.068;12.116;2022-10-14T07:33:29;43.45;;;16.75;;
583;SDS011;27024;54.068;12.116;2022-10-14T07:36:03;41.75;;;17.00;;
583;SDS011;27024;54.068;12.116;2022-10-14T07:38:32;41.72;;;16.83;;
583;SDS011;27024;54.068;12.116;2022-10-14T07:41:00;42.38;;;17.05;;
583;SDS011;27024;54.068;12.116;2022-10-14T07:43:32;44.72;;;17.77;;
583;SDS011;27024;54.068;12.116;2022-10-14T07:46:00;40.22;;;16.85;;
583;SDS011;27024;54.068;12.116;2022-10-14T07:48:30;43.78;;;16.95;;
583;SDS011;27024;54.068;12.116;2022-10-14T07:51:18;41.17;;;16.15;;
583;SDS011;27024;54.068;12.116;2022-10-14T07:53:45;39.47;;;16.50;;
583;SDS011;27024;54.068;12.116;2022-10-14T07:56:13;45.72;;;17.23;;
583;SDS011;27024;54.068;12.116;2022-10-14T07:58:40;38.97;;;17.95;;
583;SDS011;27024;54.068;12.116;2022-10-14T08:01:10;42.35;;;17.20;;
583;SDS011;27024;54.068;12.116;2022-10-14T08:03:36;39.92;;;16.58;;
583;SDS011;27024;54.068;12.116;2022-10-14T08:06:03;40.47;;;17.35;;
583;SDS011;27024;54.068;12.116;2022-10-14T08:08:31;41.22;;;16.90;;
583;SDS011;27024;54.068;12.116;2022-10-14T08:11:02;39.88;;;16.23;;
583;SDS011;27024;54.068;12.116;2022-10-14T08:13:40;36.47;;;16.08;;
583;SDS011;27024;54.068;12.116;2022-10-14T08:18:43;42.33;;;18.23;;
583;SDS011;27024;54.068;12.116;2022-10-14T08:21:10;41.70;;;17.45;;
583;SDS011;27024;54.068;12.116;2022-10-14T08:23:38;40.83;;;16.55;;
583;SDS011;27024;54.068;12.116;2022-10-14T08:26:18;40.40;;;16.80;;
583;SDS011;27024;54.068;12.116;2022-10-14T08:29:00;43.38;;;17.63;;
583;SDS011;27024;54.068;12.116;2022-10-14T08:31:29;42.28;;;17.20;;
583;SDS011;27024;54.068;12.116;2022-10-14T08:33:56;40.55;;;16.40;;
583;SDS011;27024;54.068;12.116;2022-10-14T08:36:23;41.75;;;16.75;;
583;SDS011;27024;54.068;12.116;2022-10-14T08:38:50;43.13;;;17.00;;
583;SDS011;27024;54.068;12.116;2022-10-14T08:41:32;39.42;;;16.42;;
583;SDS011;27024;54.068;12.116;2022-10-14T08:44:38;41.53;;;17.00;;
583;SDS011;27024;54.068;12.116;2022-10-14T08:47:19;36.20;;;15.30;;
583;SDS011;27024;54.068;12.116;2022-10-14T08:50:04;34.40;;;15.63;;
583;SDS011;27024;54.068;12.116;2022-10-14T08:52:46;29.20;;;14.35;;
583;SDS011;27024;54.068;12.116;2022-10-14T08:55:25;33.75;;;14.50;;
583;SDS011;27024;54.068;12.116;2022-10-14T08:57:54;31.85;;;15.43;;
583;SDS011;27024;54.068;12.116;2022-10-14T09:00:26;31.60;;;14.95;;
583;SDS011;27024;54.068;12.116;2022-10-14T09:02:56;32.40;;;16.02;;
583;SDS011;27024;54.068;12.116;2022-10-14T09:05:25;32.95;;;15.13;;
583;SDS011;27024;54.068;12.116;2022-10-14T09:07:54;34.50;;;16.35;;
583;SDS011;27024;54.068;12.116;2022-10-14T09:13:13;36.58;;;16.17;;
583;SDS011;27024;54.068;12.116;2022-10-14T09:15:44;31.98;;;15.95;;
583;SDS011;27024;54.068;12.116;2022-10-14T09:18:19;32.25;;;15.38;;
583;SDS011;27024;54.068;12.116;2022-10-14T09:20:53;33.80;;;15.40;;
583;SDS011;27024;54.068;12.116;2022-10-14T09:23:22;33.22;;;15.48;;
583;SDS011;27024;54.068;12.116;2022-10-14T09:28:45;34.28;;;15.35;;
583;SDS011;27024;54.068;12.116;2022-10-14T09:31:11;32.47;;;16.08;;
583;SDS011;27024;54.068;12.116;2022-10-14T09:33:40;30.10;;;16.55;;
583;SDS011;27024;54.068;12.116;2022-10-14T09:38:38;30.58;;;14.98;;
583;SDS011;27024;54.068;12.116;2022-10-14T09:41:06;34.65;;;15.80;;
583;SDS011;27024;54.068;12.116;2022-10-14T09:43:37;29.15;;;14.38;;
583;SDS011;27024;54.068;12.116;2022-10-14T09:46:27;30.52;;;14.45;;
583;SDS011;27024;54.068;12.116;2022-10-14T09:48:54;29.83;;;15.05;;
583;SDS011;27024;54.068;12.116;2022-10-14T09:53:51;33.45;;;15.60;;
583;SDS011;27024;54.068;12.116;2022-10-14T09:56:41;32.30;;;16.25;;
583;SDS011;27024;54.068;12.116;2022-10-14T09:59:20;30.60;;;14.93;;
583;SDS011;27024;54.068;12.116;2022-10-14T10:01:48;29.45;;;14.05;;
583;SDS011;27024;54.068;12.116;2022-10-14T10:06:50;26.58;;;14.63;;
583;SDS011;27024;54.068;12.116;2022-10-14T10:09:18;28.92;;;14.45;;
583;SDS011;27024;54.068;12.116;2022-10-14T10:11:46;27.58;;;14.80;;
583;SDS011;27024;54.068;12.116;2022-10-14T10:14:18;32.08;;;13.93;;
583;SDS011;27024;54.068;12.116;2022-10-14T10:16:47;31.35;;;14.77;;
583;SDS011;27024;54.068;12.116;2022-10-14T10:19:36;29.38;;;15.40;;
583;SDS011;27024;54.068;12.116;2022-10-14T10:22:14;30.95;;;15.27;;
583;SDS011;27024;54.068;12.116;2022-10-14T10:24:50;29.73;;;15.07;;
583;SDS011;27024;54.068;12.116;2022-10-14T10:27:39;33.25;;;15.13;;
583;SDS011;27024;54.068;12.116;2022-10-14T10:38:07;35.13;;;17.35;;
583;SDS011;27024;54.068;12.116;2022-10-14T10:43:29;35.30;;;16.08;;
583;SDS011;27024;54.068;12.116;2022-10-14T10:49:12;35.67;;;16.42;;
583;SDS011;27024;54.068;12.116;2022-10-14T10:52:03;34.22;;;16.70;;
583;SDS011;27024;54.068;12.116;2022-10-14T10:57:11;30.88;;;14.88;;
583;SDS011;27024;54.068;12.116;2022-10-14T10:59:58;33.20;;;15.57;;
583;SDS011;27024;54.068;12.116;2022-10-14T11:02:35;33.10;;;16.48;;
583;SDS011;27024;54.068;12.116;2022-10-14T11:14:05;32.60;;;14.65;;
583;SDS011;27024;54.068;12.116;2022-10-14T11:34:07;18.75;;;9.88;;
583;SDS011;27024;54.068;12.116;2022-10-14T11:37:01;14.73;;;8.65;;
583;SDS011;27024;54.068;12.116;2022-10-14T11:45:05;17.88;;;9.23;;
583;SDS011;27024;54.068;12.116;2022-10-14T11:47:47;16.92;;;9.05;;
583;SDS011;27024;54.068;12.116;2022-10-14T11:50:25;14.68;;;8.23;;
583;SDS011;27024;54.068;12.116;2022-10-14T11:53:16;16.95;;;9.32;;
583;SDS011;27024;54.068;12.116;2022-10-14T12:01:56;16.73;;;9.15;;
583;SDS011;27024;54.068;12.116;2022-10-14T12:04:30;15.50;;;8.82;;
583;SDS011;27024;54.068;12.116;2022-10-14T12:09:36;15.80;;;8.50;;
583;SDS011;27024;54.068;12.116;2022-10-14T12:12:07;17.92;;;9.27;;
583;SDS011;27024;54.068;12.116;2022-10-14T12:14:45;15.73;;;8.57;;
583;SDS011;27024;54.068;12.116;2022-10-14T12:17:17;16.17;;;9.05;;
583;SDS011;27024;54.068;12.116;2022-10-14T12:19:48;17.65;;;9.23;;
583;SDS011;27024;54.068;12.116;2022-10-14T12:22:17;15.80;;;8.02;;
583;SDS011;27024;54.068;12.116;2022-10-14T12:24:48;16.92;;;9.13;;
583;SDS011;27024;54.068;12.116;2022-10-14T12:27:17;15.82;;;8.95;;
583;SDS011;27024;54.068;12.116;2022-10-14T12:29:47;16.33;;;8.68;;
583;SDS011;27024;54.068;12.116;2022-10-14T12:32:17;19.77;;;9.32;;
583;SDS011;27024;54.068;12.116;2022-10-14T12:34:47;13.00;;;7.68;;
583;SDS011;27024;54.068;12.116;2022-10-14T12:42:34;16.23;;;8.80;;
583;SDS011;27024;54.068;12.116;2022-10-14T12:45:14;19.02;;;9.68;;
583;SDS011;27024;54.068;12.116;2022-10-14T12:47:43;18.17;;;10.20;;
583;SDS011;27024;54.068;12.116;2022-10-14T12:52:44;16.67;;;9.57;;
583;SDS011;27024;54.068;12.116;2022-10-14T12:57:53;17.00;;;10.18;;
583;SDS011;27024;54.068;12.116;2022-10-14T13:00:36;19.13;;;10.98;;
583;SDS011;27024;54.068;12.116;2022-10-14T13:03:15;20.83;;;11.23;;
583;SDS011;27024;54.068;12.116;2022-10-14T13:05:45;19.05;;;10.85;;
583;SDS011;27024;54.068;12.116;2022-10-14T13:18:52;17.40;;;9.40;;
583;SDS011;27024;54.068;12.116;2022-10-14T13:23:51;16.33;;;10.02;;
583;SDS011;27024;54.068;12.116;2022-10-14T13:31:37;17.08;;;9.70;;
583;SDS011;27024;54.068;12.116;2022-10-14T13:37:10;16.30;;;9.10;;
583;SDS011;27024;54.068;12.116;2022-10-14T13:39:54;18.20;;;10.00;;
583;SDS011;27024;54.068;12.116;2022-10-14T13:42:24;18.08;;;9.80;;
583;SDS011;27024;54.068;12.116;2022-10-14T13:44:57;16.92;;;10.10;;
583;SDS011;27024;54.068;12.116;2022-10-14T13:47:31;16.67;;;9.38;;
583;SDS011;27024;54.068;12.116;2022-10-14T13:50:01;17.73;;;9.57;;
583;SDS011;27024;54.068;12.116;2022-10-14T13:52:31;14.82;;;9.60;;
583;SDS011;27024;54.068;12.116;2022-10-14T13:55:12;16.38;;;9.80;;
583;SDS011;27024;54.068;12.116;2022-10-14T14:00:48;15.32;;;10.13;;
583;SDS011;27024;54.068;12.116;2022-10-14T14:06:02;15.05;;;9.20;;
583;SDS011;27024;54.068;12.116;2022-10-14T14:08:37;15.43;;;9.05;;
583;SDS011;27024;54.068;12.116;2022-10-14T14:11:25;17.20;;;9.65;;
583;SDS011;27024;54.068;12.116;2022-10-14T14:13:59;15.82;;;9.73;;
583;SDS011;27024;54.068;12.116;2022-10-14T14:16:35;16.77;;;10.23;;
583;SDS011;27024;54.068;12.116;2022-10-14T14:19:06;16.17;;;9.13;;
583;SDS011;27024;54.068;12.116;2022-10-14T14:21:44;13.90;;;8.77;;
583;SDS011;27024;54.068;12.116;2022-10-14T14:24:15;15.70;;;9.80;;
583;SDS011;27024;54.068;12.116;2022-10-14T14:26:44;18.00;;;9.82;;
583;SDS011;27024;54.068;12.116;2022-10-14T14:29:16;15.82;;;8.82;;
583;SDS011;27024;54.068;12.116;2022-10-14T14:31:44;13.45;;;8.43;;
583;SDS011;27024;54.068;12.116;2022-10-14T14:34:35;15.57;;;8.75;;
583;SDS011;27024;54.068;12.116;2022-10-14T14:37:03;17.20;;;10.23;;
583;SDS011;27024;54.068;12.116;2022-10-14T14:39:54;18.38;;;10.50;;
583;SDS011;27024;54.068;12.116;2022-10-14T14:42:26;18.75;;;10.57;;
583;SDS011;27024;54.068;12.116;2022-10-14T14:45:03;21.00;;;10.93;;
583;SDS011;27024;54.068;12.116;2022-10-14T14:47:32;17.48;;;9.75;;
583;SDS011;27024;54.068;12.116;2022-10-14T14:49:59;17.25;;;9.93;;
583;SDS011;27024;54.068;12.116;2022-10-14T14:52:48;18.02;;;10.35;;
583;SDS011;27024;54.068;12.116;2022-10-14T14:57:59;19.38;;;10.90;;
583;SDS011;27024;54.068;12.116;2022-10-14T15:00:28;18.25;;;11.25;;
583;SDS011;27024;54.068;12.116;2022-10-14T15:02:58;17.95;;;11.40;;
583;SDS011;27024;54.068;12.116;2022-10-14T15:05:27;18.27;;;10.75;;
583;SDS011;27024;54.068;12.116;2022-10-14T15:07:55;19.95;;;11.80;;
583;SDS011;27024;54.068;12.116;2022-10-14T15:10:23;21.02;;;12.05;;
583;SDS011;27024;54.068;12.116;2022-10-14T15:12:56;20.45;;;11.75;;
583;SDS011;27024;54.068;12.116;2022-10-14T15:15:28;20.55;;;11.52;;
583;SDS011;27024;54.068;12.116;2022-10-14T15:21:12;18.52;;;11.23;;
583;SDS011;27024;54.068;12.116;2022-10-14T15:29:04;21.50;;;11.35;;
583;SDS011;27024;54.068;12.116;2022-10-14T15:31:31;19.67;;;11.38;;
583;SDS011;27024;54.068;12.116;2022-10-14T15:33:58;19.75;;;12.55;;
583;SDS011;27024;54.068;12.116;2022-10-14T15:36:26;17.90;;;10.48;;
583;SDS011;27024;54.068;12.116;2022-10-14T15:38:58;18.92;;;11.35;;
583;SDS011;27024;54.068;12.116;2022-10-14T15:41:27;18.45;;;9.95;;
583;SDS011;27024;54.068;12.116;2022-10-14T15:43:54;19.23;;;10.48;;
583;SDS011;27024;54.068;12.116;2022-10-14T15:46:21;19.90;;;10.93;;
583;SDS011;27024;54.068;12.116;2022-10-14T15:49:14;17.33;;;10.40;;
583;SDS011;27024;54.068;12.116;2022-10-14T15:51:45;18.33;;;11.13;;
583;SDS011;27024;54.068;12.116;2022-10-14T15:54:12;19.77;;;11.98;;
583;SDS011;27024;54.068;12.116;2022-10-14T15:56:41;19.42;;;10.60;;
583;SDS011;27024;54.068;12.116;2022-10-14T15:59:08;19.10;;;10.38;;
583;SDS011;27024;54.068;12.116;2022-10-14T16:01:35;21.10;;;11.20;;
583;SDS011;27024;54.068;12.116;2022-10-14T16:04:05;17.58;;;10.65;;
583;SDS011;27024;54.068;12.116;2022-10-14T16:06:40;20.10;;;10.85;;
583;SDS011;27024;54.068;12.116;2022-10-14T16:09:07;20.13;;;11.57;;
583;SDS011;27024;54.068;12.116;2022-10-14T16:11:36;21.33;;;11.05;;
583;SDS011;27024;54.068;12.116;2022-10-14T16:14:03;18.33;;;11.38;;
583;SDS011;27024;54.068;12.116;2022-10-14T16:16:30;17.77;;;10.45;;
583;SDS011;27024;54.068;12.116;2022-10-14T16:19:01;19.17;;;10.73;;
583;SDS011;27024;54.068;12.116;2022-10-14T16:21:28;17.15;;;10.43;;
583;SDS011;27024;54.068;12.116;2022-10-14T16:23:56;18.85;;;11.00;;
583;SDS011;27024;54.068;12.116;2022-10-14T16:26:24;21.25;;;11.27;;
583;SDS011;27024;54.068;12.116;2022-10-14T16:28:51;22.77;;;10.82;;
583;SDS011;27024;54.068;12.116;2022-10-14T16:31:18;19.63;;;11.38;;
583;SDS011;27024;54.068;12.116;2022-10-14T16:33:49;21.00;;;11.40;;
583;SDS011;27024;54.068;12.116;2022-10-14T16:36:17;18.52;;;10.30;;
583;SDS011;27024;54.068;12.116;2022-10-14T16:38:44;18.05;;;11.07;;
583;SDS011;27024;54.068;12.116;2022-10-14T16:41:10;21.02;;;10.75;;
583;SDS011;27024;54.068;12.116;2022-10-14T16:43:38;23.02;;;11.68;;
583;SDS011;27024;54.068;12.116;2022-10-14T16:46:05;21.60;;;12.10;;
583;SDS011;27024;54.068;12.116;2022-10-14T16:48:38;20.20;;;12.43;;
583;SDS011;27024;54.068;12.116;2022-10-14T16:51:05;22.27;;;12.63;;
583;SDS011;27024;54.068;12.116;2022-10-14T16:53:32;21.48;;;11.93;;
583;SDS011;27024;54.068;12.116;2022-10-14T16:56:13;22.33;;;12.75;;
583;SDS011;27024;54.068;12.116;2022-10-14T16:59:03;21.80;;;12.73;;
583;SDS011;27024;54.068;12.116;2022-10-14T17:01:32;24.17;;;12.20;;
583;SDS011;27024;54.068;12.116;2022-10-14T17:03:59;23.88;;;13.05;;
583;SDS011;27024;54.068;12.116;2022-10-14T17:06:26;21.52;;;12.27;;
583;SDS011;27024;54.068;12.116;2022-10-14T17:08:53;23.45;;;12.80;;
583;SDS011;27024;54.068;12.116;2022-10-14T17:11:20;23.00;;;12.50;;
583;SDS011;27024;54.068;12.116;2022-10-14T17:13:50;24.42;;;12.27;;
583;SDS011;27024;54.068;12.116;2022-10-14T17:16:21;22.48;;;12.10;;
583;SDS011;27024;54.068;12.116;2022-10-14T17:18:48;25.65;;;13.13;;
583;SDS011;27024;54.068;12.116;2022-10-14T17:21:15;23.48;;;13.07;;
583;SDS011;27024;54.068;12.116;2022-10-14T17:23:42;27.38;;;13.73;;
583;SDS011;27024;54.068;12.116;2022-10-14T17:26:10;26.25;;;13.55;;